Time;durP1;ratioP1;P1;durP2;ratioP2;P2;SDS_P1;SDS_P2;PMS_P1;PMS_P2;Temp;Humidity;BMP_temperature;BMP_pressure;BME280_temperature;BME280_humidity;BME280_pressure;Samples;Min_cycle;Max_cycle;Signal;HPM_P1;HPM_P2
2022/10/29 00:01:24;;;;;;;43.73;15.30;;;15.90;99.90;;;;;;5066922;28;20474;-63
2022/10/29 00:03:51;;;;;;;30.37;12.37;;;15.80;99.90;;;;;;5057837;28;20749;-63
2022/10/29 00:06:19;;;;;;;40.90;15.97;;;15.80;99.90;;;;;;5081653;28;20501;-63
2022/10/29 00:08:46;;;;;;;41.50;11.40;;;15.90;99.90;;;;;;5067488;28;20652;-62
2022/10/29 00:11:14;;;;;;;54.93;19.23;;;15.90;99.90;;;;;;5069657;28;20802;-63
2022/10/29 00:13:42;;;;;;;29.77;11.37;;;15.90;99.90;;;;;;5073932;28;20485;-62
2022/10/29 00:16:10;;;;;;;40.43;12.47;;;12.90;99.90;;;;;;5068250;28;20842;-63
2022/10/29 00:18:37;;;;;;;41.40;13.20;;;;;;;;;;5068269;28;20669;-64
2022/10/29 00:21:06;;;;;;;35.60;11.40;;;15.90;99.90;;;;;;5060009;28;20474;-63
2022/10/29 00:23:34;;;;;;;39.57;11.10;;;15.80;99.90;;;;;;5083587;28;21058;-63
2022/10/29 00:26:02;;;;;;;37.23;10.20;;;15.80;99.90;;;;;;5073842;28;20474;-63
2022/10/29 00:28:30;;;;;;;31.20;11.83;;;15.80;99.90;;;;;;5068089;28;20481;-63
2022/10/29 00:30:56;;;;;;;38.87;11.77;;;15.80;99.90;;;;;;5071387;28;20482;-63
2022/10/29 00:33:23;;;;;;;45.23;15.93;;;15.80;99.90;;;;;;5073822;28;20502;-63
2022/10/29 00:35:56;;;;;;;43.10;11.60;;;;;;;;;;5072735;28;20478;-62
2022/10/29 00:38:23;;;;;;;87.20;18.43;;;15.70;99.90;;;;;;5071309;28;20494;-62
2022/10/29 00:40:52;;;;;;;61.93;13.63;;;15.70;99.90;;;;;;5069257;28;20741;-62
2022/10/29 00:43:20;;;;;;;48.17;14.10;;;15.70;99.90;;;;;;5080087;28;20611;-62
2022/10/29 00:45:50;;;;;;;48.30;13.50;;;15.60;99.90;;;;;;5071372;28;20485;-63
2022/10/29 00:48:17;;;;;;;48.17;17.47;;;15.50;99.90;;;;;;5059074;28;20500;-63
2022/10/29 00:50:46;;;;;;;26.87;9.77;;;15.50;99.90;;;;;;5071275;28;20477;-63
2022/10/29 00:53:13;;;;;;;49.17;15.73;;;15.40;99.90;;;;;;5072191;28;20483;-63
2022/10/29 00:55:40;;;;;;;45.13;12.00;;;17.10;99.90;;;;;;5073015;28;20489;-63
2022/10/29 00:58:10;;;;;;;37.33;10.90;;;15.30;99.90;;;;;;5070248;28;20853;-62
2022/10/29 01:00:38;;;;;;;53.73;12.67;;;15.20;99.90;;;;;;5071910;27;20504;-63
2022/10/29 01:03:04;;;;;;;62.40;14.70;;;15.10;99.90;;;;;;5070757;28;20502;-62
2022/10/29 01:05:32;;;;;;;43.63;11.00;;;;;;;;;;5072254;28;20491;-62
2022/10/29 01:07:58;;;;;;;30.00;11.30;;;15.10;99.90;;;;;;5067221;28;20478;-63
2022/10/29 01:10:31;;;;;;;31.53;11.83;;;;;;;;;;5072708;28;20481;-62
2022/10/29 01:13:13;;;;;;;29.67;11.80;;;14.90;99.90;;;;;;5072215;28;20477;-62
2022/10/29 01:15:48;;;;;;;29.83;10.20;;;14.90;99.90;;;;;;5073677;28;20479;-63
2022/10/29 01:18:38;;;;;;;61.17;17.37;;;14.80;99.90;;;;;;5047733;28;21083;-63
2022/10/29 01:21:37;;;;;;;64.60;13.77;;;14.70;99.90;;;;;;5058319;28;20874;-63
2022/10/29 01:24:40;;;;;;;47.23;12.40;;;14.60;99.90;;;;;;5069794;28;21019;-62
2022/10/29 01:27:33;;;;;;;40.90;12.80;;;14.60;99.90;;;;;;5073031;28;20480;-63
2022/10/29 01:30:13;;;;;;;44.30;12.73;;;14.50;99.90;;;;;;5072224;28;21264;-63
2022/10/29 01:32:51;;;;;;;60.47;15.60;;;18.20;99.90;;;;;;5060627;28;20804;-63
2022/10/29 01:35:22;;;;;;;57.53;16.60;;;;;;;;;;5072894;28;20514;-62
2022/10/29 01:37:58;;;;;;;38.90;12.10;;;14.50;99.90;;;;;;5070648;28;20781;-63
2022/10/29 01:40:28;;;;;;;40.17;12.60;;;14.50;99.90;;;;;;5079865;28;20518;-63
2022/10/29 01:43:04;;;;;;;50.57;13.50;;;14.50;99.90;;;;;;5070601;28;20502;-63
2022/10/29 01:45:34;;;;;;;48.17;13.20;;;;;;;;;;5075901;28;20482;-62
2022/10/29 01:48:08;;;;;;;29.10;12.60;;;14.50;99.90;;;;;;5072146;28;20479;-63
2022/10/29 01:50:37;;;;;;;40.37;13.63;;;14.50;99.90;;;;;;5081704;28;21192;-63
2022/10/29 01:53:05;;;;;;;30.67;10.13;;;;;;;;;;5077291;28;20470;-63
2022/10/29 01:55:34;;;;;;;47.67;11.60;;;14.40;99.90;;;;;;5076428;28;20472;-62
2022/10/29 01:58:02;;;;;;;28.53;9.00;;;;;;;;;;5071015;28;20486;-63
2022/10/29 02:00:36;;;;;;;53.27;10.80;;;14.20;99.90;;;;;;5076547;28;20514;-62
2022/10/29 02:03:21;;;;;;;42.97;12.50;;;14.10;99.90;;;;;;5075601;28;20475;-63
2022/10/29 02:05:55;;;;;;;37.40;11.30;;;14.20;99.90;;;;;;5064216;28;20738;-62
2022/10/29 02:08:31;;;;;;;55.53;18.30;;;14.20;99.90;;;;;;5068499;28;20485;-63
2022/10/29 02:11:05;;;;;;;26.30;9.23;;;14.10;99.90;;;;;;5065977;28;20485;-62
2022/10/29 02:13:36;;;;;;;32.53;11.87;;;14.00;99.90;;;;;;5074122;28;20474;-62
2022/10/29 02:16:05;;;;;;;28.70;9.63;;;;;;;;;;5072714;28;20483;-61
2022/10/29 02:18:40;;;;;;;39.57;11.63;;;14.00;99.90;;;;;;5065206;28;20535;-62
2022/10/29 02:21:07;;;;;;;41.37;12.60;;;14.00;99.90;;;;;;5074117;28;20901;-63
2022/10/29 02:23:34;;;;;;;38.43;11.40;;;14.00;99.90;;;;;;5076128;28;20474;-62
2022/10/29 02:26:01;;;;;;;39.30;10.30;;;14.00;99.90;;;;;;5073683;28;20937;-63
2022/10/29 02:28:28;;;;;;;45.57;14.20;;;;;;;;;;5068894;27;20483;-63
2022/10/29 02:30:55;;;;;;;52.83;13.90;;;;;;;;;;5076113;28;20486;-62
2022/10/29 02:33:22;;;;;;;65.87;16.50;;;;;;;;;;5076339;28;20478;-62
2022/10/29 02:35:50;;;;;;;49.33;14.00;;;14.20;99.90;;;;;;5073407;28;20483;-62
2022/10/29 02:38:18;;;;;;;130.80;21.43;;;;;;;;;;5066180;28;20482;-63
2022/10/29 02:40:45;;;;;;;62.37;13.53;;;;;;;;;;5075547;28;20527;-62
2022/10/29 02:43:12;;;;;;;60.00;15.27;;;;;;;;;;5073083;28;20950;-62
2022/10/29 02:45:38;;;;;;;52.27;14.30;;;14.10;99.90;;;;;;5074250;28;21037;-62
2022/10/29 02:48:06;;;;;;;37.43;12.20;;;14.10;99.90;;;;;;5071605;28;20478;-62
2022/10/29 02:50:32;;;;;;;31.07;8.63;;;15.30;99.90;;;;;;5076588;28;20556;-62
2022/10/29 02:53:01;;;;;;;24.77;10.50;;;13.90;99.90;;;;;;5076634;27;20483;-62
2022/10/29 02:55:28;;;;;;;38.30;10.83;;;;;;;;;;5075439;28;20566;-62
2022/10/29 02:57:55;;;;;;;29.60;11.73;;;13.90;99.90;;;;;;5069782;28;20467;-62
2022/10/29 03:00:21;;;;;;;50.50;14.93;;;13.90;99.90;;;;;;5074774;28;20498;-63
2022/10/29 03:02:52;;;;;;;34.83;12.23;;;13.90;99.90;;;;;;5072999;28;20482;-62
2022/10/29 03:05:18;;;;;;;55.07;16.97;;;13.80;99.90;;;;;;5072324;28;20565;-62
2022/10/29 03:07:46;;;;;;;42.93;15.70;;;;;;;;;;5069208;28;20828;-63
2022/10/29 03:10:15;;;;;;;55.27;16.20;;;13.70;99.90;;;;;;5075811;28;20479;-62
2022/10/29 03:12:42;;;;;;;34.03;11.13;;;13.80;99.90;;;;;;5056997;28;20470;-63
2022/10/29 03:15:10;;;;;;;57.93;15.17;;;13.80;99.90;;;;;;5071679;28;20935;-62
2022/10/29 03:17:37;;;;;;;35.67;12.83;;;13.80;99.90;;;;;;5052758;28;20482;-62
2022/10/29 03:20:05;;;;;;;30.23;11.83;;;13.80;99.90;;;;;;5085069;28;20479;-62
2022/10/29 03:22:31;;;;;;;28.33;9.93;;;13.60;99.90;;;;;;5066109;28;20517;-63
2022/10/29 03:24:59;;;;;;;36.33;10.20;;;;;;;;;;5078920;28;20494;-62
2022/10/29 03:27:27;;;;;;;48.33;14.23;;;;;;;;;;5067143;28;20478;-62
2022/10/29 03:29:54;;;;;;;26.60;11.27;;;13.70;99.90;;;;;;5055053;28;20490;-62
2022/10/29 03:32:21;;;;;;;41.83;14.30;;;13.60;99.90;;;;;;5082353;28;20478;-63
2022/10/29 03:34:48;;;;;;;39.73;12.87;;;;;;;;;;5070338;28;20494;-62
2022/10/29 03:37:14;;;;;;;42.53;17.10;;;13.60;99.90;;;;;;5067113;28;20708;-62
2022/10/29 03:39:41;;;;;;;36.83;10.40;;;13.60;99.90;;;;;;5074059;28;20482;-62
2022/10/29 03:42:08;;;;;;;44.20;12.77;;;13.60;99.90;;;;;;5073051;28;20482;-62
2022/10/29 03:44:36;;;;;;;19.73;9.93;;;13.60;99.90;;;;;;5072241;28;20474;-62
2022/10/29 03:47:02;;;;;;;26.33;9.10;;;13.60;99.90;;;;;;5064228;28;20493;-63
2022/10/29 03:49:29;;;;;;;25.70;9.87;;;13.60;99.90;;;;;;5072575;28;20482;-62
2022/10/29 03:51:56;;;;;;;24.63;10.20;;;13.50;99.90;;;;;;5070786;28;20804;-62
2022/10/29 03:54:23;;;;;;;44.53;11.37;;;13.50;99.90;;;;;;5071725;28;20490;-62
2022/10/29 03:56:49;;;;;;;44.93;13.87;;;13.50;99.90;;;;;;5065912;28;20787;-62
2022/10/29 03:59:16;;;;;;;26.83;13.53;;;13.50;99.90;;;;;;5070749;28;20486;-62
2022/10/29 04:01:44;;;;;;;22.03;9.10;;;13.40;99.90;;;;;;5073603;28;20485;-62
2022/10/29 04:04:11;;;;;;;33.30;14.47;;;13.40;99.90;;;;;;5059263;28;20466;-62
2022/10/29 04:06:38;;;;;;;51.63;17.17;;;13.30;99.90;;;;;;5062846;28;20481;-63
2022/10/29 04:09:04;;;;;;;29.43;9.40;;;13.20;99.90;;;;;;5078482;28;20577;-62
2022/10/29 04:11:31;;;;;;;43.37;12.80;;;13.20;99.90;;;;;;5072402;28;20989;-62
2022/10/29 04:13:58;;;;;;;26.30;11.90;;;13.20;99.90;;;;;;5070858;28;20575;-62
2022/10/29 04:16:25;;;;;;;35.67;13.40;;;13.20;99.90;;;;;;5070454;28;20485;-62
2022/10/29 04:18:53;;;;;;;38.60;10.63;;;13.10;99.90;;;;;;5071078;28;20978;-62
2022/10/29 04:21:20;;;;;;;43.87;13.43;;;13.00;99.90;;;;;;5071127;28;20486;-62
2022/10/29 04:23:51;;;;;;;34.73;10.60;;;13.00;99.90;;;;;;5074015;28;20485;-61
2022/10/29 04:26:18;;;;;;;61.67;15.03;;;12.90;99.90;;;;;;5071292;28;21077;-61
2022/10/29 04:28:48;;;;;;;43.63;11.07;;;12.70;99.90;;;;;;5067151;28;20477;-61
2022/10/29 04:31:15;;;;;;;31.23;12.30;;;12.70;99.90;;;;;;5064162;28;20853;-61
2022/10/29 04:33:41;;;;;;;39.13;12.33;;;12.70;99.90;;;;;;5084438;28;20478;-61
2022/10/29 04:36:10;;;;;;;31.17;11.80;;;12.80;99.90;;;;;;5070547;28;21058;-61
2022/10/29 04:38:37;;;;;;;35.87;9.60;;;12.80;99.90;;;;;;5067033;28;20487;-61
2022/10/29 04:41:04;;;;;;;22.10;10.30;;;;;;;;;;5064984;28;20474;-62
2022/10/29 04:43:32;;;;;;;26.83;12.30;;;;;;;;;;5066581;28;20489;-61
2022/10/29 04:45:59;;;;;;;27.83;9.30;;;12.80;99.90;;;;;;5084411;28;20497;-62
2022/10/29 04:48:27;;;;;;;33.00;10.70;;;12.80;99.90;;;;;;5069740;28;20471;-61
2022/10/29 04:50:54;;;;;;;29.07;9.40;;;12.80;99.90;;;;;;5072075;28;20470;-61
2022/10/29 04:53:22;;;;;;;33.67;13.03;;;12.80;99.90;;;;;;5068471;28;20474;-62
2022/10/29 04:55:49;;;;;;;30.17;10.10;;;12.80;99.90;;;;;;5071679;28;20706;-61
2022/10/29 04:58:18;;;;;;;53.27;15.77;;;12.70;99.90;;;;;;5067553;28;20829;-61
2022/10/29 05:00:45;;;;;;;36.97;9.90;;;12.60;99.90;;;;;;5072727;28;21005;-63
2022/10/29 05:03:12;;;;;;;43.03;11.60;;;12.60;99.90;;;;;;5067958;28;20498;-61
2022/10/29 05:05:40;;;;;;;39.83;10.67;;;12.60;99.90;;;;;;5072961;28;20486;-61
2022/10/29 05:08:07;;;;;;;37.97;10.00;;;;;;;;;;5070460;28;20643;-62
2022/10/29 05:10:38;;;;;;;27.27;12.07;;;12.70;99.90;;;;;;5060155;28;20477;-62
2022/10/29 05:13:06;;;;;;;37.17;10.43;;;12.70;99.90;;;;;;5086588;28;20486;-62
2022/10/29 05:15:34;;;;;;;19.63;8.80;;;;;;;;;;5071125;28;20506;-63
2022/10/29 05:18:01;;;;;;;31.20;8.67;;;12.70;99.90;;;;;;5073862;28;20489;-62
2022/10/29 05:20:28;;;;;;;17.83;8.83;;;12.50;99.90;;;;;;5075350;28;20474;-63
2022/10/29 05:22:59;;;;;;;25.97;9.50;;;12.50;99.90;;;;;;5075230;28;21007;-62
2022/10/29 05:25:26;;;;;;;35.47;11.33;;;12.60;99.90;;;;;;5072898;28;20941;-62
2022/10/29 05:28:01;;;;;;;36.27;11.10;;;12.50;99.90;;;;;;5073735;28;20485;-62
2022/10/29 05:30:28;;;;;;;39.23;10.77;;;12.30;99.90;;;;;;5076036;28;20508;-62
2022/10/29 05:32:55;;;;;;;23.43;9.80;;;;;;;;;;5076334;28;20474;-62
2022/10/29 05:35:22;;;;;;;35.10;11.80;;;12.30;99.90;;;;;;5075249;28;20748;-62
2022/10/29 05:37:51;;;;;;;32.90;12.47;;;12.40;99.90;;;;;;5074071;28;20478;-62
2022/10/29 05:40:18;;;;;;;39.27;12.13;;;;;;;;;;5075395;28;20482;-62
2022/10/29 05:42:45;;;;;;;36.30;10.97;;;12.30;99.90;;;;;;5075666;28;20494;-63
2022/10/29 05:45:13;;;;;;;46.73;15.23;;;12.30;99.90;;;;;;5069721;28;20478;-63
2022/10/29 05:47:41;;;;;;;27.50;11.30;;;;;;;;;;5073052;28;20962;-62
2022/10/29 05:50:08;;;;;;;31.83;11.53;;;12.50;99.90;;;;;;5076920;28;20489;-61
2022/10/29 05:52:35;;;;;;;54.70;11.27;;;12.60;99.90;;;;;;5074077;28;21007;-62
2022/10/29 05:55:02;;;;;;;27.17;10.63;;;;;;;;;;5071183;28;20471;-62
2022/10/29 05:57:29;;;;;;;24.03;11.27;;;;;;;;;;5075585;28;20535;-62
2022/10/29 05:59:56;;;;;;;17.90;9.37;;;12.80;99.90;;;;;;5073611;28;20883;-62
2022/10/29 06:02:24;;;;;;;39.17;13.30;;;12.80;99.90;;;;;;5073529;28;20478;-63
2022/10/29 06:04:50;;;;;;;38.20;10.77;;;12.90;99.90;;;;;;5071026;28;20479;-61
2022/10/29 06:07:17;;;;;;;36.30;12.47;;;12.90;99.90;;;;;;5072237;28;20483;-63
2022/10/29 06:09:44;;;;;;;16.00;9.17;;;12.90;99.90;;;;;;5074593;28;20565;-62
2022/10/29 06:12:11;;;;;;;30.30;11.73;;;12.90;99.90;;;;;;5068102;28;20879;-62
2022/10/29 06:14:38;;;;;;;25.73;9.23;;;12.90;99.90;;;;;;5074601;28;20629;-62
2022/10/29 06:17:04;;;;;;;20.63;9.10;;;12.80;99.90;;;;;;5070335;28;21195;-62
2022/10/29 06:19:33;;;;;;;19.90;8.90;;;;;;;;;;5074691;28;20490;-62
2022/10/29 06:22:00;;;;;;;14.47;8.57;;;;;;;;;;5073503;28;20474;-62
2022/10/29 06:24:27;;;;;;;32.03;12.50;;;12.80;99.90;;;;;;5073744;28;20834;-62
2022/10/29 06:26:53;;;;;;;43.70;11.87;;;12.80;99.90;;;;;;5073173;28;20542;-63
2022/10/29 06:29:20;;;;;;;47.87;14.80;;;12.90;99.90;;;;;;5074130;28;20574;-62
2022/10/29 06:31:47;;;;;;;28.80;9.80;;;12.80;99.90;;;;;;5074701;28;20479;-62
2022/10/29 06:34:14;;;;;;;57.40;15.97;;;12.80;99.90;;;;;;5069309;28;20482;-62
2022/10/29 06:36:42;;;;;;;58.97;15.50;;;12.80;99.90;;;;;;5073968;28;20478;-62
2022/10/29 06:39:09;;;;;;;44.97;12.13;;;12.90;99.90;;;;;;5074950;28;20726;-62
2022/10/29 06:41:35;;;;;;;51.77;12.30;;;13.00;99.90;;;;;;5074539;28;20549;-63
2022/10/29 06:44:02;;;;;;;56.00;12.47;;;13.00;99.90;;;;;;5074286;28;20482;-63
2022/10/29 06:46:30;;;;;;;78.00;14.47;;;;;;;;;;5070517;28;20478;-62
2022/10/29 06:48:57;;;;;;;60.10;10.97;;;;;;;;;;5074428;28;20489;-62
2022/10/29 06:51:24;;;;;;;40.53;14.10;;;;;;;;;;5072466;28;20500;-62
2022/10/29 06:53:53;;;;;;;22.73;9.90;;;14.10;99.90;;;;;;5078744;28;20478;-62
2022/10/29 06:56:20;;;;;;;24.63;13.03;;;13.30;99.90;;;;;;5072892;28;20478;-62
2022/10/29 06:58:47;;;;;;;20.57;10.43;;;13.30;99.90;;;;;;5073301;28;20610;-63
2022/10/29 07:01:14;;;;;;;30.73;14.13;;;13.40;99.90;;;;;;5073490;28;20562;-62
2022/10/29 07:03:40;;;;;;;19.13;10.70;;;13.50;99.90;;;;;;5076074;28;21013;-62
2022/10/29 07:06:07;;;;;;;20.13;11.70;;;13.60;99.90;;;;;;5075147;28;20807;-63
2022/10/29 07:08:34;;;;;;;24.40;11.93;;;13.70;99.90;;;;;;5064159;28;20494;-62
2022/10/29 07:11:03;;;;;;;24.80;13.27;;;13.80;99.90;;;;;;5083153;28;20482;-62
2022/10/29 07:13:30;;;;;;;25.83;13.73;;;;;;;;;;5073386;28;20887;-62
2022/10/29 07:15:58;;;;;;;21.90;10.17;;;;;;;;;;5073174;28;20479;-62
2022/10/29 07:18:25;;;;;;;24.00;10.93;;;;;;;;;;5067709;28;20747;-62
2022/10/29 07:20:52;;;;;;;24.03;9.47;;;;;;;;;;5074417;28;20474;-63
2022/10/29 07:23:19;;;;;;;37.87;16.57;;;14.20;99.90;;;;;;5071637;28;20974;-62
2022/10/29 07:25:45;;;;;;;22.57;10.43;;;14.50;99.90;;;;;;5057105;28;20482;-63
2022/10/29 07:28:16;;;;;;;32.50;15.67;;;14.90;99.90;;;;;;5083070;28;20486;-63
2022/10/29 07:30:43;;;;;;;35.23;15.73;;;15.60;99.90;;;;;;5072170;28;20572;-62
2022/10/29 07:33:10;;;;;;;33.90;17.27;;;15.90;99.90;;;;;;5080405;28;20486;-62
2022/10/29 07:35:38;;;;;;;17.40;10.83;;;;;;;;;;5075647;28;20482;-63
2022/10/29 07:38:06;;;;;;;59.20;12.07;;;16.30;99.90;;;;;;5071536;28;20490;-62
2022/10/29 07:40:33;;;;;;;31.73;12.23;;;16.50;99.90;;;;;;5069358;28;20479;-63
2022/10/29 07:43:00;;;;;;;35.03;14.40;;;16.90;99.90;;;;;;5072159;28;20486;-63
2022/10/29 07:45:28;;;;;;;31.07;11.60;;;;;;;;;;5074141;28;20542;-63
2022/10/29 07:47:59;;;;;;;30.47;12.27;;;18.00;99.90;;;;;;5070472;28;20491;-63
2022/10/29 07:50:26;;;;;;;31.60;11.87;;;18.30;99.90;;;;;;5078928;28;20508;-63
2022/10/29 07:52:53;;;;;;;36.57;11.80;;;18.60;99.60;;;;;;5073066;28;20489;-64
2022/10/29 07:55:20;;;;;;;44.53;20.07;;;18.80;99.50;;;;;;5070674;28;20478;-63
2022/10/29 07:57:47;;;;;;;20.93;11.97;;;18.90;99.20;;;;;;5071185;28;20486;-63
2022/10/29 08:00:15;;;;;;;35.03;14.40;;;19.30;99.00;;;;;;5061850;28;20864;-63
2022/10/29 08:02:43;;;;;;;20.60;11.17;;;19.90;99.70;;;;;;5080181;28;20915;-63
2022/10/29 08:05:09;;;;;;;26.87;14.27;;;20.60;98.40;;;;;;5070154;28;20474;-63
2022/10/29 08:07:36;;;;;;;26.97;11.60;;;21.20;97.70;;;;;;5072310;28;20908;-62
2022/10/29 08:10:03;;;;;;;28.43;10.33;;;21.80;97.50;;;;;;5075021;28;20555;-63
2022/10/29 08:12:30;;;;;;;19.40;11.43;;;22.60;97.30;;;;;;5074055;28;20487;-63
2022/10/29 08:14:57;;;;;;;25.03;10.53;;;23.20;96.20;;;;;;5074619;28;20477;-63
2022/10/29 08:17:23;;;;;;;16.80;11.60;;;23.20;95.20;;;;;;5067748;28;21247;-63
2022/10/29 08:19:51;;;;;;;31.40;12.80;;;22.90;94.50;;;;;;5074238;28;20491;-63
2022/10/29 08:22:19;;;;;;;29.13;13.00;;;22.70;94.70;;;;;;5074582;28;20490;-63
2022/10/29 08:24:46;;;;;;;29.70;15.47;;;22.40;94.90;;;;;;5074920;28;20710;-62
2022/10/29 08:27:13;;;;;;;39.07;18.10;;;;;;;;;;5062215;28;20497;-63
2022/10/29 08:29:40;;;;;;;24.77;14.17;;;;;;;;;;5085497;28;21254;-62
2022/10/29 08:32:07;;;;;;;28.30;14.10;;;23.00;96.40;;;;;;5073079;28;20498;-63
2022/10/29 08:34:33;;;;;;;31.73;12.67;;;23.20;96.40;;;;;;5073397;28;20460;-63
2022/10/29 08:37:02;;;;;;;28.40;12.60;;;23.60;95.40;;;;;;5069129;28;20993;-63
2022/10/29 08:39:28;;;;;;;32.97;12.83;;;23.80;94.80;;;;;;5070454;28;20487;-64
2022/10/29 08:41:58;;;;;;;35.23;12.83;;;;;;;;;;5073428;28;20879;-63
2022/10/29 08:45:08;;;;;;;33.53;13.77;;;24.10;94.50;;;;;;5074285;28;20919;-64
2022/10/29 08:47:43;;;;;;;24.33;12.67;;;24.10;94.40;;;;;;5012035;28;20469;-63
2022/10/29 08:50:19;;;;;;;22.77;11.20;;;24.10;94.50;;;;;;4987951;28;20484;-63
2022/10/29 08:52:48;;;;;;;31.17;11.97;;;24.20;94.20;;;;;;5052749;28;20441;-63
2022/10/29 08:55:18;;;;;;;37.40;11.77;;;24.20;94.20;;;;;;5074740;28;20567;-64
2022/10/29 08:57:48;;;;;;;47.50;11.73;;;;;;;;;;5074685;28;20470;-63
2022/10/29 09:00:16;;;;;;;26.23;12.53;;;;;;;;;;5071728;28;20605;-62
2022/10/29 09:02:43;;;;;;;24.10;9.50;;;24.40;94.40;;;;;;5076613;28;20481;-63
2022/10/29 09:05:13;;;;;;;28.57;9.57;;;24.40;94.00;;;;;;5072759;28;20482;-63
2022/10/29 09:08:01;;;;;;;42.17;13.50;;;;;;;;;;5066996;28;20474;-63
2022/10/29 09:10:33;;;;;;;58.70;13.43;;;;;;;;;;5066632;28;21073;-63
2022/10/29 09:13:20;;;;;;;92.90;15.80;;;24.40;94.50;;;;;;5076891;28;20845;-64
2022/10/29 09:16:20;;;;;;;47.63;13.00;;;24.10;93.60;;;;;;5069783;28;21051;-64
2022/10/29 09:19:09;;;;;;;48.63;12.77;;;24.10;94.50;;;;;;5016999;28;21143;-64
2022/10/29 09:21:45;;;;;;;36.53;11.40;;;23.90;94.30;;;;;;5076126;28;20461;-64
2022/10/29 09:24:15;;;;;;;24.27;10.07;;;23.60;93.70;;;;;;5075276;28;20465;-64
2022/10/29 09:26:57;;;;;;;45.13;13.57;;;23.50;95.20;;;;;;5075185;28;20977;-63
2022/10/29 09:29:51;;;;;;;35.60;11.50;;;23.10;94.90;;;;;;5065907;28;20846;-63
2022/10/29 09:32:22;;;;;;;17.90;11.40;;;23.20;95.60;;;;;;5073759;28;20460;-64
2022/10/29 09:34:51;;;;;;;28.10;10.10;;;;;;;;;;5061529;28;20482;-62
2022/10/29 09:37:21;;;;;;;22.23;12.27;;;23.00;95.60;;;;;;5076583;28;20482;-64
2022/10/29 09:39:49;;;;;;;29.33;8.70;;;22.90;96.30;;;;;;5058932;28;20440;-64
2022/10/29 09:42:22;;;;;;;30.60;11.07;;;23.10;96.80;;;;;;5077709;28;20937;-64
2022/10/29 09:44:52;;;;;;;15.43;8.53;;;;;;;;;;5077026;28;20452;-64
2022/10/29 09:47:31;;;;;;;37.70;9.73;;;23.40;95.70;;;;;;5073669;28;20474;-64
2022/10/29 09:50:09;;;;;;;32.47;9.10;;;23.60;97.20;;;;;;5054754;28;20519;-64
2022/10/29 09:52:37;;;;;;;30.43;12.53;;;;;;;;;;5074297;27;20977;-64
2022/10/29 09:55:07;;;;;;;21.27;8.13;;;23.70;96.50;;;;;;5081471;28;21402;-64
2022/10/29 09:57:36;;;;;;;29.03;9.33;;;;;;;;;;5073554;28;20478;-64
2022/10/29 10:00:07;;;;;;;23.30;8.90;;;24.10;95.90;;;;;;5073250;28;20831;-64
2022/10/29 10:02:36;;;;;;;40.90;11.07;;;;;;;;;;5075645;28;20644;-64
2022/10/29 10:05:05;;;;;;;31.93;10.00;;;;;;;;;;5076882;28;20478;-64
2022/10/29 10:07:32;;;;;;;49.13;12.77;;;24.50;96.40;;;;;;5073178;28;20460;-64
2022/10/29 10:10:00;;;;;;;41.03;13.17;;;24.70;96.50;;;;;;5075035;28;20459;-64
2022/10/29 10:12:29;;;;;;;34.77;10.57;;;24.80;95.70;;;;;;5063261;28;20457;-64
2022/10/29 10:15:16;;;;;;;36.50;10.70;;;25.10;95.80;;;;;;5079202;28;20629;-64
2022/10/29 10:17:58;;;;;;;32.60;9.37;;;24.80;95.60;;;;;;5069825;28;20486;-64
2022/10/29 10:20:45;;;;;;;37.17;12.27;;;25.60;95.10;;;;;;5065037;28;20482;-64
2022/10/29 10:23:20;;;;;;;27.50;8.63;;;;;;;;;;5064325;28;20501;-64
2022/10/29 10:25:48;;;;;;;46.37;10.77;;;25.90;94.70;;;;;;5072566;28;21118;-64
2022/10/29 10:28:20;;;;;;;35.10;9.93;;;26.00;95.30;;;;;;5068883;28;20469;-64
2022/10/29 10:31:07;;;;;;;31.70;12.03;;;25.90;94.00;;;;;;5068854;28;20493;-64
2022/10/29 10:33:34;;;;;;;31.87;8.37;;;;;;;;;;5058242;28;20472;-64
2022/10/29 10:36:04;;;;;;;32.73;9.17;;;26.00;93.30;;;;;;5077304;28;20523;-65
2022/10/29 10:38:38;;;;;;;23.80;8.07;;;26.20;92.70;;;;;;5069467;28;20554;-64
2022/10/29 10:41:07;;;;;;;25.10;8.70;;;26.30;93.30;;;;;;5073738;28;20486;-64
2022/10/29 10:43:35;;;;;;;18.40;7.63;;;26.40;91.90;;;;;;5075566;28;20472;-65
2022/10/29 10:46:10;;;;;;;40.73;7.90;;;26.30;89.60;;;;;;5074302;28;20450;-64
2022/10/29 10:48:37;;;;;;;25.83;7.50;;;26.20;86.50;;;;;;5071247;28;20493;-64
2022/10/29 10:51:24;;;;;;;19.23;7.30;;;26.00;85.40;;;;;;5072063;28;20464;-63
2022/10/29 10:53:51;;;;;;;36.23;7.73;;;25.90;85.60;;;;;;5063683;28;21234;-65
2022/10/29 10:56:20;;;;;;;28.73;6.43;;;25.90;86.30;;;;;;5081940;28;20465;-64
2022/10/29 10:59:07;;;;;;;36.43;6.10;;;25.90;89.20;;;;;;5063074;28;20922;-65
2022/10/29 11:01:37;;;;;;;10.33;5.57;;;;;;;;;;5073231;28;20473;-65
2022/10/29 11:04:13;;;;;;;19.40;5.70;;;26.10;87.80;;;;;;5078312;28;20509;-65
2022/10/29 11:06:43;;;;;;;21.77;6.40;;;26.10;87.10;;;;;;5073326;28;20486;-64
2022/10/29 11:09:18;;;;;;;17.83;4.87;;;26.10;87.60;;;;;;5072940;28;20446;-64
2022/10/29 11:11:50;;;;;;;20.37;5.10;;;26.10;83.80;;;;;;5068451;28;20929;-65
2022/10/29 11:14:25;;;;;;;17.87;5.20;;;26.10;86.00;;;;;;5080164;28;20441;-65
2022/10/29 11:16:56;;;;;;;18.53;6.40;;;26.10;86.20;;;;;;5061448;28;20457;-64
2022/10/29 11:19:28;;;;;;;25.03;5.87;;;26.10;87.40;;;;;;5073230;28;20468;-64
2022/10/29 11:22:04;;;;;;;8.00;4.73;;;26.10;86.80;;;;;;5076413;28;20842;-65
2022/10/29 11:24:41;;;;;;;11.80;4.97;;;26.20;83.70;;;;;;5070763;28;20524;-65
2022/10/29 11:27:26;;;;;;;18.63;6.00;;;26.30;88.70;;;;;;5076620;28;20461;-65
2022/10/29 11:30:01;;;;;;;22.50;5.73;;;26.40;86.30;;;;;;5072325;28;20490;-65
2022/10/29 11:32:33;;;;;;;20.83;8.57;;;;;;;;;;5073414;28;21241;-64
2022/10/29 11:35:08;;;;;;;18.40;5.20;;;26.30;83.30;;;;;;5075649;28;20491;-65
2022/10/29 11:37:47;;;;;;;26.70;6.07;;;26.20;84.90;;;;;;5065285;27;20658;-64
2022/10/29 11:40:17;;;;;;;37.17;7.10;;;26.20;86.50;;;;;;5062928;28;20451;-64
2022/10/29 11:42:44;;;;;;;43.67;6.70;;;26.10;89.10;;;;;;5065497;28;20821;-65
2022/10/29 11:45:14;;;;;;;21.23;6.40;;;26.00;86.60;;;;;;5066911;28;20462;-65
2022/10/29 11:48:09;;;;;;;19.10;5.80;;;25.90;87.00;;;;;;5062682;28;21510;-64
2022/10/29 11:50:45;;;;;;;17.03;5.17;;;25.60;84.50;;;;;;5055616;28;20461;-64
2022/10/29 11:53:32;;;;;;;23.63;6.30;;;25.40;85.60;;;;;;5073699;28;20478;-64
2022/10/29 11:56:07;;;;;;;10.73;4.93;;;25.20;87.30;;;;;;5076856;28;20483;-64
2022/10/29 11:58:37;;;;;;;29.43;7.93;;;25.30;87.30;;;;;;5070234;28;20972;-65
2022/10/29 12:01:14;;;;;;;17.43;5.90;;;25.40;87.10;;;;;;5075340;28;20925;-65
2022/10/29 12:04:00;;;;;;;26.97;6.40;;;25.50;86.20;;;;;;5051979;28;20468;-63
2022/10/29 12:06:38;;;;;;;12.63;5.43;;;25.50;87.70;;;;;;5071860;28;20460;-64
2022/10/29 12:09:24;;;;;;;22.17;6.07;;;25.70;90.10;;;;;;5076068;28;20627;-65
2022/10/29 12:11:54;;;;;;;34.07;7.20;;;;;;;;;;5050312;28;20483;-64
2022/10/29 12:14:32;;;;;;;23.23;6.60;;;25.70;89.00;;;;;;5070345;28;20457;-64
2022/10/29 12:17:02;;;;;;;15.03;5.70;;;;;;;;;;5067328;28;21119;-64
2022/10/29 12:19:42;;;;;;;34.40;6.20;;;25.90;89.50;;;;;;5069581;28;20992;-64
2022/10/29 12:22:20;;;;;;;14.73;5.30;;;26.00;87.70;;;;;;5084090;28;21137;-65
2022/10/29 12:24:52;;;;;;;14.23;5.60;;;;;;;;;;5079780;28;20456;-65
2022/10/29 12:27:25;;;;;;;11.27;5.13;;;26.00;87.30;;;;;;5064826;28;20497;-65
2022/10/29 12:30:01;;;;;;;27.20;6.10;;;26.00;86.90;;;;;;5074930;28;20478;-65
2022/10/29 12:32:36;;;;;;;29.53;6.33;;;25.90;87.20;;;;;;5049971;28;21003;-65
2022/10/29 12:35:15;;;;;;;23.70;5.77;;;25.80;88.90;;;;;;5078796;28;20848;-64
2022/10/29 12:37:46;;;;;;;18.07;5.57;;;26.00;87.50;;;;;;5075933;28;20468;-65
2022/10/29 12:40:18;;;;;;;16.97;5.00;;;26.20;87.00;;;;;;5065511;28;20492;-65
2022/10/29 12:42:46;;;;;;;11.20;4.60;;;26.10;87.80;;;;;;5080525;28;20481;-65
2022/10/29 12:45:26;;;;;;;15.00;5.03;;;26.00;89.10;;;;;;5080153;27;20761;-65
2022/10/29 12:48:04;;;;;;;30.23;5.40;;;25.90;86.60;;;;;;5075209;28;20847;-65
2022/10/29 12:50:48;;;;;;;19.20;6.00;;;25.90;89.20;;;;;;5074351;28;20485;-65
2022/10/29 12:53:28;;;;;;;13.33;5.10;;;25.90;89.50;;;;;;5071155;28;20470;-64
2022/10/29 12:55:57;;;;;;;17.73;5.50;;;25.80;89.30;;;;;;5076006;28;20460;-65
2022/10/29 12:58:44;;;;;;;17.87;6.00;;;25.60;90.10;;;;;;5073062;28;20669;-65
2022/10/29 13:01:40;;;;;;;15.20;5.70;;;25.50;91.30;;;;;;5058938;28;20524;-65
2022/10/29 13:04:22;;;;;;;12.30;5.30;;;;;;;;;;5069480;27;20454;-65
2022/10/29 13:06:59;;;;;;;22.60;6.90;;;25.40;91.20;;;;;;5073924;28;20624;-64
2022/10/29 13:09:28;;;;;;;11.17;5.17;;;25.40;90.60;;;;;;5070194;28;20488;-64